MCO weather

Orlando International Airport
Orlando, Florida, United States

Public forecast

Using degrees Fahrenheit for public forecast. Weather courtesy of forecast.io.

METAR (pilot weather report)

Retrieved 2017/04/23 08:53 UTC (56 minutes ago):

KMCO 230853Z 00000KT 10SM SCT055 BKN140 OVC250 22/19 A2988

TAF (pilot weather forecast)

Retrieved 2017/04/23 06:27 UTC (3 hours ago):

TAF KMCO 230523Z 2306/2406 16005KT P6SM SCT070 OVC250 FM231400 14005KT P6SM SCT030 BKN100 FM231800 12007KT P6SM VCSH SCT035 BKN060 FM240400 VRB04KT P6SM SCT035 BKN200